Greenbrier, Missouri
Current Conditions -  °F | °C
As of 4:17 PM on Thursday 18 Dec 2014 (Local Time) from KCGI Reporting Station
Overcast Overcast  
Wind Chill: 31°   Ceiling: 5500
Heat Index: 35°   Visibility: 10mi
Dew Point: 32°   Wind: 5mph
Humidity: 89%   Direction: 90°E
Pressure: 30.23"   Gusts: NA
Location:  37.0733°N, 89.9°W
Report Text: KCGI 182217Z 09004KT 10SM SCT012 OVC055 02/00 A3023 RMK AO2 T00170000
Loading
Personal Weather Stations






























Interactive Weather Map New forecast layout! Learn more

10-Day Weather Forecast

Advertisements
Track Severe Weather on mobile